Latest Coastal Weather Observations for Port Macquarie Airport

IDN60701

Issued at 9:25 am EDT Sunday 26 October 2014 (issued every 10 minutes, with the page automatically refreshed every 10 minutes)

About coastal observations | Map of coastal stations | Coastal observations for NSW | Marine services | Other Formats
Station Details ID: 060139 Name: PORT MACQUARIE AIRPORT AWS Lat: -31.43 Lon: 152.87 Height: 4.2 m
Data from the previous 72 hours. | See also: Recent months at Port Macquarie Airport
Date/Time
EDT
Temp

°C
Wind Pressure Rain
since 9am
mm
Weather Cloud Vis
km
Sea
Height
m
Swell
Dir
 
Speed
knots
Gust
knots
hPa Trend Height
m
Period
s
Dir
26/09:00am 24.0 NNE 7 9 1012.9 - 0.0 - - 10 - - - -
26/08:30am 22.4 N 8 11 1013.0 - 0.0 - - 10 - - - -
26/08:00am 20.9 N 5 7 1013.4 - 0.0 - - 10 - - - -
26/07:30am 19.9 NNE 3 5 1013.5 - 0.0 - - 10 - - - -
26/07:00am 18.2 CALM 0 0 1013.6 - 0.0 - - 10 - - - -
26/06:30am 17.1 SSW 1 3 1013.7 - 0.0 - - 10 - - - -
26/06:00am 16.9 S 4 4 1013.2 - 0.0 - Cloudy 10 - - - -
26/05:30am 17.5 WNW 3 7 1013.2 - 0.0 - - 10 - - - -
26/05:00am 17.8 SSE 2 4 1013.6 - 0.0 - - 10 - - - -
26/04:30am 17.3 S 3 6 1014.3 - 0.0 - - 10 - - - -
26/04:00am 17.4 S 5 7 1014.0 - 0.0 - - 10 - - - -
26/03:30am 17.0 WSW 7 10 1014.0 - 0.0 - - 10 - - - -
26/03:00am 16.9 SSE 4 9 1013.0 - 0.0 - Cloudy 10 - - - -
26/02:30am 15.8 CALM 0 3 1013.8 - 0.0 - - 10 - - - -
26/02:00am 15.5 CALM 0 0 1014.0 - 0.0 - - 10 - - - -
26/01:30am 16.4 W 3 4 1014.4 - 0.0 - - 10 - - - -
26/01:00am 18.1 N 1 4 1014.6 - 0.0 - - 10 - - - -
26/12:30am 18.8 N 6 7 1014.6 - 0.0 - - 10 - - - -
26/12:00am 18.9 NNE 5 6 1014.9 - 0.0 - Mostly clear 10 - - - -
 
Date/Time
EDT
Temp

°C
Wind Pressure Rain
since 9am
mm
Weather Cloud Vis
km
Sea
Height
m
Swell
Dir
 
Speed
knots
Gust
knots
hPa Trend Height
m
Period
s
Dir
25/11:30pm 18.5 S 3 5 1015.7 - 0.0 - - 10 - - - -
25/11:00pm 20.7 W 8 13 1016.2 - 0.0 - - 10 - - - -
25/10:30pm 16.7 SW 3 4 1015.8 - 0.0 - - 10 - - - -
25/10:00pm 18.4 NW 2 4 1015.9 - 0.0 - - 10 - - - -
25/09:30pm 17.9 E 2 6 1015.7 - 0.0 - - 10 - - - -
25/09:00pm 19.3 ESE 3 4 1015.4 - 0.0 - - 10 - - - -
25/08:30pm 19.2 CALM 0 0 1015.2 - 0.0 - - 10 - - - -
25/08:00pm 20.9 CALM 0 0 1014.9 - 0.0 - - 10 - - - -
25/07:30pm 21.2 S 1 3 1014.5 - 0.0 - - 10 - - - -
25/07:00pm 23.2 SSE 3 4 1014.3 - 0.0 - - 10 - - - -
25/06:30pm 25.0 E 3 4 1013.8 - 0.0 - - 10 - - - -
25/06:00pm 26.9 E 6 8 1013.3 - 0.0 - - 10 - - - -
25/05:30pm 27.2 NE 7 11 1013.0 - 0.0 - - 10 - - - -
25/05:00pm 27.5 E 8 10 1012.9 - 0.0 - - 10 - - - -
25/04:30pm 27.6 ENE 8 11 1012.9 - 0.0 - - 10 - - - -
25/04:00pm 27.5 ENE 7 10 1012.9 - 0.0 - - 10 - - - -
25/03:30pm 27.1 ENE 8 11 1013.0 - 0.0 - - 10 - - - -
25/03:00pm 27.2 E 9 11 1013.2 - 0.0 - - 10 - - - -
25/02:30pm 27.7 E 9 11 1013.5 - 0.0 - - 10 - - - -
25/02:00pm 26.6 E 9 13 1013.9 - 0.0 - - 10 - - - -
25/01:30pm 26.2 ENE 10 12 1014.0 - 0.0 - - 10 - - - -
25/01:00pm 25.8 ENE 11 13 1014.2 - 0.0 - - 10 - - - -
25/12:30pm 26.5 E 9 11 1014.4 - 0.0 - - 10 - - - -
25/12:00pm 26.1 ENE 9 11 1014.7 - 0.0 - - 10 - - - -
25/11:30am 25.5 E 8 10 1015.0 - 0.0 - - 10 - - - -
25/11:00am 25.1 E 8 11 1015.1 - 0.0 - - 10 - - - -
25/10:30am 24.8 E 8 10 1015.1 - 0.0 - - 10 - - - -
25/10:00am 24.3 E 7 9 1015.2 - 0.0 - - 10 - - - -
25/09:30am 23.9 N 3 5 1015.0 - 0.0 - - 10 - - - -
25/09:00am 22.6 N 7 10 1014.8 - 0.4 - - 10 - - - -
25/08:30am 21.1 N 8 11 1014.8 - 0.4 - - 10 - - - -
25/08:00am 20.0 N 9 11 1015.0 - 0.4 - - 10 - - - -
25/07:30am 18.8 N 9 11 1014.9 - 0.4 - - 10 - - - -
25/07:00am 18.3 N 7 9 1014.8 - 0.4 - - 10 - - - -
25/06:30am 18.0 N 7 10 1014.6 - 0.4 - - 10 - - - -
25/06:00am 18.0 N 8 11 1014.6 - 0.4 - - 10 - - - -
25/05:30am 18.0 N 8 11 1014.6 - 0.4 - - 10 - - - -
25/05:00am 18.1 N 7 8 1014.6 - 0.4 - - 10 - - - -
25/04:30am 18.2 N 5 6 1014.6 - 0.4 - - 10 - - - -
25/04:00am 18.2 N 6 8 1014.4 - 0.4 - - 10 - - - -
25/03:30am 18.5 N 7 10 1014.7 - 0.4 - - 10 - - - -
25/03:00am 18.8 NNE 7 10 1014.9 - 0.4 - Cloudy 10 - - - -
25/02:30am 18.5 NE 5 6 1015.6 - 0.4 - Partly cloudy 10 - - - -
25/02:00am 18.5 SSE 5 7 1016.5 - 0.4 - Cloudy 10 - - - -
25/01:30am 19.0 NNE 4 6 1016.1 - 0.4 - Cloudy 10 - - - -
25/01:00am 19.2 NNE 9 14 1015.6 - 0.2 - Partly cloudy 10 - - - -
25/12:30am 19.4 N 10 13 1016.1 - 0.0 - - 10 - - - -
25/12:00am 19.5 N 11 14 1016.3 - 0.0 - Mostly clear 10 - - - -
 
Date/Time
EDT
Temp

°C
Wind Pressure Rain
since 9am
mm
Weather Cloud Vis
km
Sea
Height
m
Swell
Dir
 
Speed
knots
Gust
knots
hPa Trend Height
m
Period
s
Dir
24/11:30pm 19.6 N 9 12 1016.6 - 0.0 - - 10 - - - -
24/11:00pm 19.8 N 13 17 1017.1 - 0.0 - - 10 - - - -
24/10:30pm 19.8 NNE 13 18 1017.4 - 0.0 - - 10 - - - -
24/10:00pm 20.0 NNE 12 16 1018.0 - 0.0 - - 10 - - - -
24/09:30pm 19.9 N 10 13 1018.3 - 0.0 - - 10 - - - -
24/09:00pm 19.8 N 10 14 1018.4 - 0.0 - - 10 - - - -
24/08:30pm 19.9 N 10 15 1018.1 - 0.0 - - 10 - - - -
24/08:00pm 20.1 N 10 15 1018.1 - 0.0 - - 10 - - - -
24/07:30pm 20.4 N 10 16 1017.8 - 0.0 - - 10 - - - -
24/07:00pm 20.9 NNE 12 17 1017.7 - 0.0 - - 10 - - - -
24/06:30pm 21.5 NNE 14 18 1017.5 - 0.0 - - 10 - - - -
24/06:00pm 22.2 NNE 15 21 1017.5 - 0.0 - - 10 - - - -
24/05:30pm 22.7 NNE 16 21 1017.4 - 0.0 - - 10 - - - -
24/05:00pm 23.1 NNE 16 22 1017.6 - 0.0 - - 10 - - - -
24/04:30pm 23.2 NNE 17 23 1017.7 - 0.0 - - 10 - - - -
24/04:00pm 23.5 NNE 15 22 1017.8 - 0.0 - - 10 - - - -
24/03:30pm 22.4 NE 17 23 1017.7 - 0.0 - Partly cloudy 10 - - - -
24/03:00pm 24.3 NE 15 22 1018.3 - 0.0 - Cloudy 10 - - - -
24/02:30pm 24.6 NE 15 20 1018.6 - 0.0 - - 10 - - - -
24/02:00pm 25.3 NE 13 19 1018.9 - 0.0 - - 10 - - - -
24/01:30pm 25.6 NE 13 19 1019.3 - 0.0 - - 10 - - - -
24/01:00pm 25.1 NE 14 19 1019.6 - 0.0 - - 10 - - - -
24/12:30pm 25.4 NE 13 18 1020.0 - 0.0 - - 10 - - - -
24/12:00pm 25.9 NE 11 16 1020.1 - 0.0 - - 10 - - - -
24/11:30am 24.5 NNE 13 17 1020.7 - 0.0 - - 10 - - - -
24/11:00am 23.7 NNE 16 21 1020.8 - 0.0 - - 10 - - - -
24/10:30am 24.3 NNE 13 18 1021.2 - 0.0 - - 10 - - - -
24/10:00am 23.6 NE 10 17 1021.4 - 0.0 - Partly cloudy 10 - - - -
24/09:30am 23.4 N 7 11 1021.7 - 0.0 - Partly cloudy 10 - - - -
24/09:00am 21.5 N 8 11 1022.1 - 0.0 - - 10 - - - -
24/08:30am 19.3 N 6 9 1021.6 - 0.0 - - 10 - - - -
24/08:00am 17.9 NW 3 5 1021.8 - 0.0 - - 10 - - - -
24/07:30am 16.4 W 1 4 1021.5 - 0.0 - - 10 - - - -
24/07:00am 15.0 WNW 3 4 1021.1 - 0.0 - - 10 - - - -
24/06:30am 14.0 N 3 5 1020.6 - 0.0 - - 10 - - - -
24/06:12am 12.6 CALM 0 3 1020.7 - 0.0 - - 10 - - - -
24/06:11am 12.6 CALM 0 3 1020.7 - 0.0 - - 10 - - - -
24/06:00am 12.5 NW 2 3 1020.4 - 0.0 - - 4 - - - -
24/05:50am 13.0 NW 2 3 1020.1 - 0.0 - - 5 - - - -
24/05:30am 12.8 CALM 0 3 1019.8 - 0.0 - - 10 - - - -
24/05:00am 13.6 CALM 0 0 1019.8 - 0.0 - - 10 - - - -
24/04:41am 13.7 CALM 0 0 1019.6 - 0.0 - - 9 - - - -
24/04:30am 14.1 CALM 0 0 1019.6 - 0.0 - - 4 - - - -
24/04:17am 13.7 CALM 0 0 1019.4 - 0.0 - - 5 - - - -
24/04:00am 13.6 CALM 0 0 1019.2 - 0.0 - - 10 - - - -
24/03:30am 13.7 CALM 0 0 1019.3 - 0.0 - - 10 - - - -
24/03:25am 14.0 CALM 0 0 1019.3 - 0.0 - - 10 - - - -
24/03:00am 14.4 CALM 0 0 1019.4 - 0.0 - - 0.3 - - - -
24/02:51am 14.6 CALM 0 0 1019.4 - 0.0 - - 4 - - - -
24/02:30am 14.9 CALM 0 0 1019.5 - 0.0 - - 10 - - - -
24/02:00am 15.8 CALM 0 2 1019.7 - 0.0 - - 10 - - - -
24/01:30am 17.0 N 3 5 1019.8 - 0.0 - - 10 - - - -
24/01:00am 18.2 NNE 5 7 1019.8 - 0.0 - - 10 - - - -
24/12:30am 15.5 NE 3 7 1020.1 - 0.0 - - 10 - - - -
24/12:00am 15.7 CALM 0 0 1020.4 - 0.0 - - 10 - - - -
 
Date/Time
EDT
Temp

°C
Wind Pressure Rain
since 9am
mm
Weather Cloud Vis
km
Sea
Height
m
Swell
Dir
 
Speed
knots
Gust
knots
hPa Trend Height
m
Period
s
Dir
23/11:30pm 15.7 N 3 4 1020.3 - 0.0 - - 10 - - - -
23/11:00pm 17.6 NNE 3 4 1020.2 - 0.0 - - 10 - - - -
23/10:30pm 17.1 N 4 4 1020.3 - 0.0 - - 10 - - - -
23/10:00pm 18.1 N 4 5 1020.1 - 0.0 - - 10 - - - -
23/09:30pm 18.6 N 5 7 1019.9 - 0.0 - - 10 - - - -
23/09:00pm 19.5 NNE 5 8 1019.4 - 0.0 - - 10 - - - -
23/08:30pm 19.9 NNE 9 11 1019.2 - 0.0 - - 10 - - - -
23/08:00pm 20.3 N 9 13 1018.8 - 0.0 - - 10 - - - -
23/07:30pm 20.9 NNE 8 11 1018.3 - 0.0 - - 10 - - - -
23/07:00pm 21.6 NE 8 11 1017.8 - 0.0 - - 10 - - - -
23/06:30pm 23.0 NE 7 9 1017.3 - 0.0 - - 10 - - - -
23/06:00pm 23.9 NE 7 9 1016.9 - 0.0 - - 10 - - - -
23/05:30pm 24.4 NE 8 11 1016.6 - 0.0 - - 10 - - - -
23/05:00pm 24.9 NNE 9 11 1016.4 - 0.0 - - 10 - - - -
23/04:30pm 24.7 NNE 10 14 1016.3 - 0.0 - - 10 - - - -
23/04:00pm 25.1 NE 10 14 1016.3 - 0.0 - - 10 - - - -
23/03:30pm 24.1 ENE 13 16 1016.2 - 0.0 - - 10 - - - -
23/03:00pm 24.9 ENE 13 17 1016.3 - 0.0 - - 10 - - - -
23/02:30pm 24.8 ENE 12 16 1016.4 - 0.0 - - 10 - - - -
23/02:00pm 24.3 ENE 13 15 1016.6 - 0.0 - - 10 - - - -
23/01:30pm 24.4 ENE 11 14 1016.9 - 0.0 - - 10 - - - -
23/01:00pm 24.3 E 12 15 1017.4 - 0.0 - - 10 - - - -
23/12:30pm 24.5 ENE 11 14 1017.9 - 0.0 - - 10 - - - -
23/12:00pm 23.4 E 9 11 1018.4 - 0.0 - - 10 - - - -
23/11:30am 23.2 E 9 11 1018.6 - 0.0 - - 10 - - - -
23/11:00am 23.1 E 7 10 1019.0 - 0.0 - - 10 - - - -
23/10:30am 23.0 NNE 5 8 1019.2 - 0.0 - - 10 - - - -
23/10:00am 21.4 NNE 6 7 1019.4 - 0.0 - - 10 - - - -
23/09:30am 20.2 N 6 8 1019.5 - 0.0 - - 10 - - - -

Other Formats:

Comma delimited format used in spreadsheet applications
http://www.bom.gov.au/fwo/IDN60701/IDN60701.94786.axf

JavaScript Object Notation format (JSON) in row-major order
http://www.bom.gov.au/fwo/IDN60701/IDN60701.94786.json